Tiempo atmosférico en la estación meteorológica de Colmenar Viejo, Madrid (1004 m.)



Fecha
DESCASC
Temp. máxima en grados centígrados (hora)
DESCASC
Temp. mínima en grados centígrados (hora)
DESCASC
Temp. media en grados centígrados
DESCASC
Racha de viento máxima en m/sg (hora)
DESCASC
Velocidad máxima media en intervalos de 10 minutos(hora)
DESCASC
Precipitaciones diarias en mm
DESCASC
Precipitaciones de 00:00 a 06:00 en mm
DESCASC
Precipitaciones de 06:00 a 12:00 en mm
DESCASC
Precipitaciones de 12:00 a 18:00 en mm
DESCASC
Precipitaciones de 18:00 a 24:00 en mm
DESCASC
22-11-2020 12.9 (16:00) 4.3 (07:30) 8.6 3.33 (13:30) 1.94 (23:40) 0 0 0 0 0
21-11-2020 12.6 (14:00) 4.5 (08:10) 8.6 4.17 (14:50) 2.78 (15:00) 0 0 0 0 0
20-11-2020 14.5 (16:10) 5.5 (07:40) 10 6.94 (12:20) 3.33 (13:00) 0 0 0 0 0
19-11-2020 17.9 (15:20) 8.9 (00:00) 13.4 7.5 (19:10) 3.89 (22:00) 0 0 0 0 0
18-11-2020 16.9 (16:00) 7.4 (00:00) 12.1 3.89 (13:00) 1.67 (18:40) 0.1 0 0.1 0 0
17-11-2020 15.8 (15:20) 8.1 (00:00) 12 9.72 (20:20) 2.78 (12:20) 0 0 0 0 0
16-11-2020 15.2 (15:50) 9.9 (00:00) 12.5 9.17 (11:10) 3.89 (03:10) 0 0 0 0 0
15-11-2020 12.1 (18:10) 8.5 (00:00) 10.3 6.94 (12:40) 5 (12:40) 0 0 0 0 0
14-11-2020 10 (14:30) 8.4 (00:00) 9.2 4.17 (23:59) 2.22 (23:59) 1.7 0 0.5 1.2 0
13-11-2020 12.4 (12:50) 6.6 (00:00) 9.5 4.72 (11:20) 2.5 (13:30) 0 0 0 0 0
12-11-2020 12.5 (15:00) 7.2 (00:00) 9.8 5.83 (13:10) 3.33 (12:40) 0 0 0 0 0
11-11-2020 13.5 (15:10) 6.8 (00:00) 10.2 7.78 (12:10) 3.06 (15:40) 0 0 0 0 0
10-11-2020 13.9 (15:00) 6 (00:00) 9.9 7.78 (12:20) 2.22 (15:10) 0.2 0.1 0 0.1 0
09-11-2020 12.2 (14:40) 7.6 (00:00) 9.9 4.72 (13:40) 3.06 (06:00) 4 3.8 0.1 0.1 0
08-11-2020 10.7 (13:00) 6.6 (00:00) 8.6 4.44 (13:00) 2.5 (13:30) 0 0 0 0 0
07-11-2020 11.7 (16:00) 6.9 (00:00) 9.3 22.22 (01:40) 13.89 (01:30) 15.9 13.7 1.3 0.9 0
06-11-2020 15.4 (12:50) 9.2 (00:00) 12.3 15.83 (12:40) 8.61 (18:50) 2 0 0 0.1 1.9
05-11-2020 10.8 (15:00) 5.8 (00:00) 8.3 17.22 (06:40) 10 (06:40) 11.4 0.3 2.6 7.9 0.6
04-11-2020 8.6 (14:20) 5.6 (00:00) 7.1 15 (06:40) 9.72 (06:40) 1.9 0 0 0.5 1.4
03-11-2020 13.3 (00:10) 7.6 (00:00) 10.5 23.33 (18:20) 10.83 (19:30) 5.5 0 4 1.4 0.1
02-11-2020 17.7 (15:40) 10 (00:00) 13.9 10.83 (03:10) 7.5 (07:00) 0 0 0 0 0
01-11-2020 18.1 (15:00) 9.5 (00:00) 13.8 7.78 (08:00) 3.89 (08:00) 0 0 0 0 0
31-10-2020 18.7 (15:00) 9.5 (00:00) 14.1 5.83 (04:10) 1.67 (04:10) 0 0 0 0 0
30-10-2020 17 (16:00) 6.5 (00:00) 11.8 8.61 (23:50) 5.83 (07:20) 0 0 0 0 0
29-10-2020 13.6 (16:00) 7.2 (00:00) 10.4 10 (23:00) 5.28 (23:00) 0 0 0 0 0
28-10-2020 11 (14:50) 5.6 (00:00) 8.3 4.72 (03:10) 1.11 (03:20) 0 0 0 0 0
27-10-2020 13.4 (16:10) 3.9 (00:00) 8.6 0 (00:10) 0 (00:10) 0 0 0 0 0
26-10-2020 10.5 (15:10) 3.7 (00:00) 7.1 0 (00:10) 0 (00:10) 0 0 0 0 0

Gráficas

Temp. máximas Temp. mínimas Temp. medias Precipitaciones Rachas de viento máximas Velocidades máximas media en intervalos de 10 minutos

Datos horarios

Fecha y hora oficial Temperatura (ºC) Velocidad del viento (km/h) Dirección del viento Racha (km/h) Dirección de racha Precipitación (mm) Presión (hPa) Tendencia (hPa) Humedad (%)
2020-11-24 23:00:00 5.3 9 Sudoeste 13 Sudoeste 0 904.4 -0.8 79
2020-11-24 22:00:00 5 8 Oeste 12 Oeste 0 904.7 -0.5 83
2020-11-24 21:00:00 5.1 5 Oeste 8 Oeste 0 905 -0.3 81
2020-11-24 20:00:00 6 4 Sudoeste 9 Sur 0 905.2 0 73
2020-11-24 19:00:00 6.5 5 Sur 12 Sur 0 905.2 -0.2 70
2020-11-24 18:00:00 7.1 5 Sur 14 Sudeste 0 905.3 -- 69
2020-11-24 17:00:00 8.1 7 Sudeste 21 Sudeste 0 905.2 -- 68
2020-11-24 16:00:00 8.6 7 Sur 12 Sur 0 905.4 -- 64
2020-11-24 15:00:00 9.4 6 Sur 15 Sudeste 0 905.6 -- 64
2020-11-24 14:00:00 9.6 8 Sudeste 30 Sudeste 0 906.6 -- 64
2020-11-24 13:00:00 8.4 6 Sudeste 35 Sudeste 0 907.4 -- 71
2020-11-24 12:00:00 7.6 8 Sudeste 21 Sur 0 908.3 -- 71
2020-11-24 11:00:00 7.2 4 Sudeste 11 Sur 0 908.7 -- 70
2020-11-24 10:00:00 5.9 0 Calma 9 Sudeste 0 908.7 -- 73
2020-11-24 09:00:00 5.5 0 Calma 6 Sudoeste 0 908.5 -- 75
2020-11-24 08:00:00 4.4 4 Sudoeste 6 Sudoeste 0 908.3 -- 77
2020-11-24 07:00:00 4.2 2 Sudeste 5 Sudeste 0 908.3 -- 76
2020-11-24 06:00:00 4.7 3 Este 4 Este 0 908.2 -- 71
2020-11-24 05:00:00 5.2 0 Calma 4 Sudeste 0 908.3 -- 69
2020-11-24 04:00:00 5.7 2 Sudeste 3 Sudeste 0 908.8 -- 67
2020-11-24 03:00:00 6.5 3 Sur 8 Oeste 0 909.3 -- 60
2020-11-24 02:00:00 6.9 5 Oeste 8 Oeste 0 909.7 -- 60
2020-11-24 01:00:00 7 5 Oeste 7 Oeste 0 910.3 -- 62
2020-11-24 00:00:00 7 5 Oeste 8 Oeste 0 910.4 -- 68
2020-11-23 23:00:00 7.8 4 Noroeste 7 Noroeste 0 910.7 -- 64
2020-11-23 22:00:00 8 6 Noroeste 9 Noroeste 0 911 -- 64
2020-11-23 21:00:00 8.1 6 Noroeste 9 Noroeste 0 911.1 -- 62
2020-11-23 20:00:00 8.6 0 Calma 9 Este 0 911.1 -- 60
2020-11-23 19:00:00 8.8 4 Este 10 Sur 0 910.8 -- 59
2020-11-23 18:00:00 10.1 7 Sur 15 Sur 0 910.7 -- 55
2020-11-23 17:00:00 12 4 Sur 10 Este 0 910.4 -- 52
2020-11-23 16:00:00 12.9 7 Sur 12 Sur 0 910.4 -- 49
2020-11-23 15:00:00 12.9 6 Sur 14 Sur 0 910.7 -- 51
2020-11-23 14:00:00 12.3 7 Sudeste 39 Sudeste 0 911.1 -- 51
2020-11-23 13:00:00 12.5 5 Sur 23 Sur 0 911.8 -- 52
2020-11-23 12:00:00 11.7 5 Sur 17 Sudeste 0 912.5 -- 53
2020-11-23 11:00:00 11.6 4 Sur 9 Este 0 912.7 -- 52
2020-11-23 10:00:00 10.2 2 Sudeste 9 Sudeste 0 912.4 -- 58
2020-11-23 09:00:00 8.1 0 Calma 8 Noroeste 0 912.1 -- 63
2020-11-23 08:00:00 5.8 6 Norte 8 Norte 0 911.9 -- 66
2020-11-23 07:00:00 5.5 5 Noroeste 8 Noroeste 0 911.6 -- 67
2020-11-23 06:00:00 5.7 2 Oeste 5 Sudoeste 0 911.5 -- 68
2020-11-23 05:00:00 6.5 3 Sur 4 Sur 0 911.6 -- 63
2020-11-23 04:00:00 6.8 3 Noroeste 4 Oeste 0 911.6 -- 63
2020-11-23 03:00:00 6.8 3 Norte 6 Noroeste 0 911.6 -- 66
2020-11-23 02:00:00 6.9 0 Calma 5 Norte 0 911.8 -- 68
2020-11-23 01:00:00 7.5 0 Calma 6 Norte 0 912.2 -- 67
2020-11-23 00:00:00 7.8 5 Norte 9 Norte 0 912.3 -- 66
2020-11-22 23:00:00 7 4 Norte 7 Norte 0 912.4 -- 68
2020-11-22 22:00:00 7.2 4 Noroeste 5 Norte 0 912.2 -- 64
2020-11-22 21:00:00 7.7 3 Nordeste 4 Nordeste 0 912.1 -- 62
2020-11-22 20:00:00 7.8 3 Este 4 Sudeste 0 911.8 -- 62
2020-11-22 19:00:00 8.6 0 Calma 5 Este 0 911.5 -- 59
2020-11-22 18:00:00 10.3 3 Sur 8 Sur 0 911.1 -- 53
2020-11-22 17:00:00 12.3 4 Sur 10 Sudeste 0 911.3 -- 49
2020-11-22 16:00:00 12.8 5 Sur 10 Sur 0 911.1 -- 49
2020-11-22 15:00:00 12.7 3 Sur 12 Sur 0 911.4 -- 52
2020-11-22 14:00:00 12.1 5 Sur 12 Sur 0 911.7 -- 53
2020-11-22 13:00:00 12.1 3 Sur 9 Sudoeste 0 912.3 -- 55
2020-11-22 12:00:00 10.8 3 Sur 9 Sudoeste 0 912.9 -- 57
2020-11-22 11:00:00 9.3 5 Sudoeste 8 Sudoeste 0 913.3 -- 60
2020-11-22 10:00:00 8.3 0 Calma 4 Sudoeste 0 913.1 -- 66
2020-11-22 09:00:00 6 0 Calma 3 Sudoeste 0 912.7 -- 74
2020-11-22 08:00:00 4.4 0 Calma 3 Oeste 0 912.4 -- 76
2020-11-22 07:00:00 4.7 0 Calma 4 Norte 0 912.5 -- 75
2020-11-22 06:00:00 5 0 Calma 5 Norte 0 912.3 -- 71
2020-11-22 05:00:00 4.6 5 Norte 9 Norte 0 912.3 -- 67
2020-11-22 04:00:00 5 3 Norte 4 Norte 0 912.7 -- 66
2020-11-22 03:00:00 5.4 0 Calma 7 Sudeste 0 912.9 -- 60
2020-11-22 02:00:00 5.8 5 Este 7 Sudeste 0 912.9 -- 48
2020-11-22 01:00:00 6.9 3 Sudeste 8 Sudeste 0 913 -- 44
2020-11-22 00:00:00 7.5 3 Sur 4 Sudeste 0 912.8 -- 42
2020-11-21 23:00:00 7.2 3 Norte 8 Noroeste 0 913.2 -- 41
2020-11-21 22:00:00 7.6 5 Norte 6 Noroeste 0 913 -- 41
2020-11-21 21:00:00 7.6 4 Norte 10 Norte 0 912.7 -- 41
2020-11-21 20:00:00 8.4 0 Calma 9 Nordeste 0 912.6 -- 35
2020-11-21 19:00:00 7.9 5 Este 7 Nordeste 0 912.5 -- 38
2020-11-21 18:00:00 9.5 0 Calma 8 Sudeste 0 912.1 -- 37
2020-11-21 17:00:00 11.1 6 Sudeste 14 Este 0 911.9 -- 37
2020-11-21 16:00:00 11.6 8 Sudeste 15 Este 0 911.4 -- 36
2020-11-21 15:00:00 11.8 10 Sudeste 15 Sudeste 0 911.5 -- 35
2020-11-21 14:00:00 12.3 5 Sudeste 13 Sudeste 0 911.6 -- 36
2020-11-21 13:00:00 11.8 6 Sudeste 14 Sudeste 0 912.1 -- 38
2020-11-21 12:00:00 11.8 6 Sudeste 11 Sudeste 0 912.6 -- 37
2020-11-21 11:00:00 10.1 0 Calma 0 Calma 0 912.6 -- 43
2020-11-21 10:00:00 9.3 0 Calma 11 Norte 0 912.4 -- 49
2020-11-21 09:00:00 5.7 7 Noroeste 9 Noroeste 0 911.9 -- 54
2020-11-21 08:00:00 4.7 9 Este 13 Este 0 911.4 -- 56
2020-11-21 07:00:00 5.1 3 Nordeste 12 Este 0 911.1 -- 56
2020-11-21 06:00:00 6.1 3 Noroeste 13 Noroeste 0 911.3 -- 54
2020-11-21 05:00:00 7.4 10 Noroeste 13 Noroeste 0 911.3 -- 51
2020-11-21 04:00:00 6.6 0 Calma 7 Oeste 0 911.8 -- 51
2020-11-21 03:00:00 6.4 5 Oeste 6 Oeste 0 911.5 -- 54
2020-11-21 02:00:00 6.4 2 Noroeste 6 Noroeste 0 912.1 -- 55
2020-11-21 01:00:00 7.2 3 Oeste 5 Sur 0 912.4 -- 54
2020-11-21 00:00:00 7.6 2 Sudoeste 6 Oeste 0 912.5 -- 58
2020-11-20 23:00:00 7.7 0 Calma 5 Sudoeste 0 912.5 -- 55
2020-11-20 22:00:00 8.8 0 Calma 6 Noroeste 0 912.7 -- 55
2020-11-20 21:00:00 8.9 5 Noroeste 9 Noroeste 0 911.8 -- 53
2020-11-20 20:00:00 9.2 6 Noroeste 10 Noroeste 0 912.4 -- 49
2020-11-20 19:00:00 10.4 0 Calma 5 Sur 0 912.3 -- 42
2020-11-20 18:00:00 11.7 4 Sudeste 8 Sudeste 0 912.6 -- 39
2020-11-20 17:00:00 13.8 4 Sudeste 12 Sur 0 912.7 -- 35
2020-11-20 16:00:00 14.4 4 Sur 13 Sur 0 913.1 -- 37
2020-11-20 15:00:00 13.3 7 Sudeste 20 Sudoeste 0 913.3 -- 39
2020-11-20 14:00:00 13.4 8 Sudoeste 20 Oeste 0 913.9 -- 47
2020-11-20 13:00:00 12.4 12 Sudeste 25 Sudoeste 0 914.3 -- 49
2020-11-20 12:00:00 11.8 5 Sudoeste 16 Este 0 915.1 -- 52
2020-11-20 11:00:00 10.4 6 Sudeste 15 Sudeste 0 914.8 -- 58
2020-11-20 10:00:00 9.5 3 Oeste 6 Sudoeste 0 914.6 -- 80
2020-11-20 09:00:00 7.8 0 Calma 5 Sudoeste 0 914.6 -- 93
2020-11-20 08:00:00 5.6 4 Oeste 9 Noroeste 0 914.3 -- 97
2020-11-20 07:00:00 6.7 0 Calma 6 Este 0 914.3 -- 91
2020-11-20 06:00:00 6.9 2 Este 6 Oeste 0 914.7 -- 91
2020-11-20 05:00:00 7.2 0 Calma 7 Este 0 915.1 -- 89
2020-11-20 04:00:00 7.1 2 Nordeste 12 Noroeste 0 915.4 -- 87
2020-11-20 03:00:00 7.5 9 Noroeste 12 Noroeste 0 915.6 -- 88
2020-11-20 02:00:00 6.9 0 Calma 6 Este 0 916.2 -- 88
2020-11-20 01:00:00 7.7 3 Oeste 6 Sudoeste 0 916.8 -- 81
2020-11-20 00:00:00 8.9 4 Noroeste 11 Noroeste 0 917 -- 75
2020-11-19 23:00:00 9.4 8 Oeste 17 Oeste 0 917.1 -- 74
2020-11-19 22:00:00 10.8 14 Oeste 22 Nordeste 0 917 -- 66
2020-11-19 21:00:00 11.9 9 Noroeste 22 Noroeste 0 917.1 -- 63
2020-11-19 20:00:00 12.7 10 Noroeste 27 Noroeste 0 917 -- 59
2020-11-19 19:00:00 13.3 9 Noroeste 22 Norte 0 916.9 -- 53
2020-11-19 18:00:00 15.2 3 Norte 15 Sudoeste 0 916.6 -- 53
2020-11-19 17:00:00 16.8 8 Sudeste 13 Este 0 916.1 -- 50
2020-11-19 16:00:00 17.5 10 Sudeste 15 Sudeste 0 915.8 -- 49
2020-11-19 15:00:00 17.6 6 Sudeste 23 Sudeste 0 916.2 -- 49
2020-11-19 14:00:00 17.1 7 Sudeste 18 Sudeste 0 916.6 -- 50
2020-11-19 13:00:00 16.7 9 Sudeste 22 Sudeste 0 917 -- 49
2020-11-19 12:00:00 16.8 5 Sur 15 Sudeste 0 917.5 -- 49
2020-11-19 11:00:00 17.3 5 Sudeste 13 Sudeste 0 917.4 -- 46
2020-11-19 10:00:00 15.3 0 Calma 7 Oeste 0 916.8 -- 43
2020-11-19 09:00:00 13.4 3 Nordeste 6 Sudeste 0 915.9 -- 47
2020-11-19 08:00:00 11.5 3 Sur 12 Noroeste 0 915.1 -- 51
2020-11-19 07:00:00 12.3 3 Noroeste 8 Este 0 914.8 -- 48
2020-11-19 06:00:00 12.5 3 Oeste 8 Noroeste 0 914.5 -- 49
2020-11-19 05:00:00 12.4 2 Sudoeste 6 Sudoeste 0 914.2 -- 52
2020-11-19 04:00:00 12.4 3 Oeste 8 Noroeste 0 914.2 -- 52
2020-11-19 03:00:00 12.4 2 Noroeste 12 Noroeste 0 914.1 -- 57
2020-11-19 02:00:00 11.9 7 Noroeste 13 Noroeste 0 914.1 -- 65
2020-11-19 01:00:00 11.5 6 Noroeste 11 Noroeste 0 914.3 -- 69
2020-11-19 00:00:00 11.8 3 Sudoeste 7 Sudoeste 0 914.5 -- 61
2020-11-18 23:00:00 12.1 2 Sudoeste 8 Norte 0 914.4 -- 57
2020-11-18 22:00:00 12.3 4 Norte 7 Norte 0 914 -- 59
2020-11-18 21:00:00 12.3 4 Noroeste 10 Noroeste 0 913.8 -- 67
2020-11-18 20:00:00 12.1 3 Sudoeste 12 Oeste 0 913.5 -- 76
2020-11-18 19:00:00 12.6 4 Noroeste 9 Norte 0 913.2 -- 78
2020-11-18 18:00:00 13.8 0 Calma 6 Nordeste 0 912.8 -- 74
2020-11-18 17:00:00 16.1 0 Calma 8 Sur 0 912.6 -- 73
2020-11-18 16:00:00 16.4 0 Calma 8 Oeste 0 912.4 -- 71
2020-11-18 15:00:00 15.2 3 Sudoeste 6 Oeste 0 912.5 -- 83
2020-11-18 14:00:00 13.1 0 Calma 10 Este 0 912.8 -- 99
2020-11-18 13:00:00 10 4 Oeste 14 Oeste 0 913.8 -- 99
2020-11-18 12:00:00 9.7 3 Sur 6 Sur 0 914.1 -- 99
2020-11-18 11:00:00 9 0 Calma 6 Sudeste 0 913.9 -- 99
2020-11-18 10:00:00 8.5 0 Calma -- -- 0.1 913.7 -- 99
2020-11-18 09:00:00 7.9 0 Calma 4 Sudeste 0 913.4 -- 99
2020-11-18 08:00:00 7.7 4 Sudeste 6 Norte 0 913.1 -- 99
2020-11-18 07:00:00 7.7 2 Norte 6 Nordeste 0 912.7 -- 99
2020-11-18 06:00:00 8.2 2 Noroeste 4 Sudeste 0 912.7 -- 99
2020-11-18 05:00:00 8.7 2 Sur 3 Sur 0 912.3 -- 99
2020-11-18 04:00:00 9 0 Calma 4 Norte 0 912.4 -- 99
2020-11-18 03:00:00 9.2 0 Calma 5 Nordeste 0 912.6 -- 99
2020-11-18 02:00:00 9.3 3 Nordeste 5 Nordeste 0 912.5 -- 99
2020-11-18 01:00:00 9.5 0 Calma 3 Sudeste 0 913.1 -- 99
2020-11-18 00:00:00 9.9 0 Calma 4 Este 0 913.2 -- 99
2020-11-17 23:00:00 10.1 4 Nordeste 6 Nordeste 0 913 -- 99
2020-11-17 22:00:00 10.4 4 Este 11 Este 0 913 -- 97
2020-11-17 21:00:00 11.2 4 Este 35 Este 0 912.7 -- 96
2020-11-17 20:00:00 11 0 Calma 32 Sudeste 0 912.4 -- 96
2020-11-17 19:00:00 11.3 6 Sur 18 Sudeste 0 912.1 -- 91
2020-11-17 18:00:00 12.4 5 Sudeste 14 Sudeste 0 911.7 -- 81
2020-11-17 17:00:00 14.8 5 Sudoeste 13 Sur 0 911.8 -- 66
2020-11-17 16:00:00 15 6 Sudeste 11 Sur 0 911.8 -- 67
2020-11-17 15:00:00 15.5 4 Sur 11 Sudoeste 0 911.8 -- 64
2020-11-17 14:00:00 14.5 3 Sudeste 15 Sudeste 0 911.8 -- 68
2020-11-17 13:00:00 13.9 7 Sudeste 24 Sudeste 0 912.4 -- 71
2020-11-17 12:00:00 13.8 2 Sudeste 12 Sudeste 0 912.9 -- 74
2020-11-17 11:00:00 13.3 3 Sur 7 Sur 0 912.8 -- 80
2020-11-17 10:00:00 10.7 0 Calma 5 Sudeste 0 912.7 -- 88
2020-11-17 09:00:00 8.8 0 Calma 4 Noroeste 0 912.3 -- 97
2020-11-17 08:00:00 8.3 4 Noroeste 5 Noroeste 0 911.7 -- 98
2020-11-17 07:00:00 8.1 0 Calma 8 Sudoeste 0 911.5 -- 97
2020-11-17 06:00:00 9.1 3 Este 8 Norte 0 911.2 -- 97
2020-11-17 05:00:00 8.9 5 Norte 7 Noroeste 0 911 -- 95
2020-11-17 04:00:00 9.2 2 Noroeste 5 Nordeste 0 911.4 -- 95
2020-11-17 03:00:00 9.4 0 Calma 8 Sur 0 911.4 -- 92
2020-11-17 02:00:00 9.8 0 Calma 9 Norte 0 911.8 -- 88
2020-11-17 01:00:00 9.8 6 Norte 9 Norte 0 911.9 -- 88
2020-11-17 00:00:00 10.6 4 Nordeste 9 Nordeste 0 911.9 -- 88
2020-11-16 23:00:00 10.7 4 Norte 9 Norte 0 911.8 -- 87
2020-11-16 22:00:00 11.1 3 Norte 5 Norte 0 911.6 -- 85
2020-11-16 21:00:00 12.3 2 Este 25 Este 0 911.5 -- 81
2020-11-16 20:00:00 12.5 7 Este 27 Sudeste 0 910.9 -- 81
2020-11-16 19:00:00 12.8 6 Este 19 Este 0 910.4 -- 79
2020-11-16 18:00:00 13 3 Oeste 16 Este 0 910 -- 75
2020-11-16 17:00:00 14.3 5 Sudoeste 10 Sur 0 909.7 -- 69
2020-11-16 16:00:00 14.7 6 Sudoeste 12 Sur 0 909.3 -- 68
2020-11-16 15:00:00 14.5 5 Sur 15 Sudoeste 0 909.3 -- 66
2020-11-16 14:00:00 13.8 8 Sudoeste 15 Sur 0 909.9 -- 70
2020-11-16 13:00:00 13.6 8 Sur 18 Sudoeste 0 910.4 -- 78
2020-11-16 12:00:00 12.5 9 Sudoeste 33 Sudoeste 0 910.1 -- 88
2020-11-16 11:00:00 13.1 11 Sudoeste 22 Sudoeste 0 909.8 -- 82
2020-11-16 10:00:00 12.1 6 Sudoeste 17 Oeste 0 909.3 -- 94
2020-11-16 09:00:00 10.6 5 Sudoeste 19 Sudoeste 0 908.6 -- 93
2020-11-16 08:00:00 10.1 2 Oeste 9 Oeste 0 908.1 -- 91
2020-11-16 07:00:00 10.4 2 Sudeste 9 Sudeste 0 907.7 -- 85
2020-11-16 06:00:00 11.5 5 Noroeste 15 Oeste 0 907.8 -- 81
2020-11-16 05:00:00 12.2 8 Oeste 25 Oeste 0 907.2 -- 79
2020-11-16 04:00:00 11.6 6 Sudoeste 20 Sudoeste 0 907.6 -- 88
2020-11-16 03:00:00 11.4 12 Sudoeste 20 Sudoeste 0 907.3 -- 94
2020-11-16 02:00:00 11.9 8 Oeste 22 Sudoeste 0 907.5 -- 93
2020-11-16 01:00:00 11.5 11 Oeste 22 Oeste 0 907.7 -- 99
2020-11-16 00:00:00 10.4 5 Noroeste 9 Noroeste 0 908.3 -- 99
2020-11-15 23:00:00 10.9 5 Sudoeste 13 Sur 0 908.2 -- 99
2020-11-15 22:00:00 11.1 10 Sur 16 Sur 0 907.9 -- 99
2020-11-15 21:00:00 11 6 Sur 13 Sur 0 907.3 -- 99
2020-11-15 20:00:00 11.5 7 Sur 10 Sur 0 907.1 -- 99
2020-11-15 19:00:00 11.9 5 Sudoeste 16 Sudoeste 0 907.1 -- 99
2020-11-15 18:00:00 12 5 Sur 13 Sur 0 907 -- 99
2020-11-15 17:00:00 11.8 8 Sur 21 Sudoeste 0 906.8 -- 99
2020-11-15 16:00:00 11.7 9 Sudoeste 18 Sudoeste 0 906.7 -- 99
2020-11-15 15:00:00 11.1 10 Sudoeste 19 Sudoeste 0 906.6 -- 99
2020-11-15 14:00:00 10.9 12 Sudoeste 23 Sudoeste 0 906.8 -- 99
2020-11-15 13:00:00 10.5 14 Sudoeste 25 Sudoeste 0 907.2 -- 99
2020-11-15 12:00:00 10.4 14 Sudoeste 23 Sudoeste 0 907.7 -- 99
2020-11-15 11:00:00 10 11 Sudoeste 17 Sudoeste 0 907.7 -- 99
2020-11-15 10:00:00 9.6 9 Sudoeste 14 Sudoeste 0 907.7 -- 99
2020-11-15 09:00:00 9 0 Calma 8 Sudoeste 0 907.2 -- 99
2020-11-15 08:00:00 8.8 3 Oeste 7 Sur 0 906.9 -- 99
2020-11-15 07:00:00 8.7 4 Sudoeste 10 Sudoeste 0 906.9 -- 99
2020-11-15 06:00:00 8.7 3 Oeste 11 Sudoeste 0 906.4 -- 99
2020-11-15 05:00:00 8.6 3 Oeste 7 Oeste 0 906.4 -- 99
2020-11-15 04:00:00 8.7 3 Sudoeste 12 Sudoeste 0 906.6 -- 99
2020-11-15 03:00:00 8.6 5 Sudoeste 10 Sur 0 906.8 -- 99
2020-11-15 02:00:00 9 5 Sur 9 Sur 0 907 -- 99
2020-11-15 01:00:00 9.2 4 Sudoeste 14 Sudoeste 0 907.3 -- 99
2020-11-15 00:00:00 9.1 8 Sudoeste 15 Sudoeste 0 907.4 -- 99
2020-11-14 23:00:00 8.9 3 Oeste 7 Oeste 0 907.5 -- 99
2020-11-14 22:00:00 9.1 4 Sudoeste 7 Sur 0 907.4 -- 99
2020-11-14 21:00:00 9 4 Sudoeste 10 Sudoeste 0 907.1 -- 99
2020-11-14 20:00:00 9 5 Sudoeste 9 Sudoeste 0 907 -- 99
2020-11-14 19:00:00 9.3 4 Sudoeste 7 Sudoeste 0 906.7 -- 99
2020-11-14 18:00:00 9.3 0 Calma 5 Sur 0 906.2 -- 99
2020-11-14 17:00:00 9.4 2 Sudeste 7 Sudeste 0 906 -- 99
2020-11-14 16:00:00 9.3 4 Sudeste 9 Sudeste 0.1 905.9 -- 99
2020-11-14 15:00:00 9.7 4 Sur 6 Sudeste 0.1 906 -- 99
2020-11-14 14:00:00 9.8 3 Sur 6 Sudeste 0.2 906.2 -- 99
2020-11-14 13:00:00 9.3 2 Este 8 Sudeste 0.8 906.7 -- 99
2020-11-14 12:00:00 9 4 Sur 6 Sudoeste 0.5 907.3 -- 93
2020-11-14 11:00:00 9.3 6 Sudeste 10 Este 0 907 -- 88
2020-11-14 10:00:00 9.2 3 Este 7 Sudeste 0 906.8 -- 85
2020-11-14 09:00:00 9 5 Sudeste 7 Sudeste 0 906.6 -- 85
2020-11-14 08:00:00 9 0 Calma 7 Norte 0 906 -- 85
2020-11-14 07:00:00 8.6 2 Norte 5 Noroeste 0 905.9 -- 85
2020-11-14 06:00:00 8.8 0 Calma 6 Sudeste 0 905.8 -- 84
2020-11-14 05:00:00 8.4 4 Sudeste 6 Sudeste 0 905.7 -- 82
2020-11-14 04:00:00 9 4 Sur 6 Sur 0 906 -- 79
2020-11-14 03:00:00 9 3 Sur 13 Sur 0 906.4 -- 79
2020-11-14 02:00:00 9 5 Sudoeste 8 Sudoeste 0 906.6 -- 79
2020-11-14 01:00:00 8.9 6 Oeste 10 Oeste 0 906.9 -- 80
2020-11-14 00:00:00 8.9 5 Oeste 8 Oeste 0 907.2 -- 83
2020-11-13 23:00:00 8.7 5 Oeste 7 Oeste 0 907.2 -- 83
2020-11-13 22:00:00 9 5 Oeste 7 Oeste 0 907 -- 83
2020-11-13 21:00:00 9 4 Noroeste 7 Noroeste 0 906.9 -- 82
2020-11-13 20:00:00 9.4 5 Noroeste 7 Oeste 0 906.9 -- 75
2020-11-13 19:00:00 9.5 0 Calma 3 Norte 0 906.5 -- 75
2020-11-13 18:00:00 9.9 0 Calma 6 Sudeste 0 906.2 -- 74
2020-11-13 17:00:00 10.5 6 Sudeste 9 Sudeste 0 905.7 -- 73
2020-11-13 16:00:00 11.1 6 Sudeste 10 Sudeste 0 905.9 -- 69
2020-11-13 15:00:00 11.4 7 Sur 13 Este 0 906.2 -- 67
2020-11-13 14:00:00 12.2 9 Sudeste 15 Sur 0 906.6 -- 68
2020-11-13 13:00:00 12.1 5 Sudeste 15 Este 0 906.8 -- 70
2020-11-13 12:00:00 10.8 4 Sudeste 17 Este 0 907.5 -- 75
2020-11-13 11:00:00 9.9 5 Este 15 Sudeste 0 907.4 -- 77
2020-11-13 10:00:00 9.1 5 Este 11 Nordeste 0 907.2 -- 85
2020-11-13 09:00:00 7.6 0 Calma 5 Este 0 907 -- 89
2020-11-13 08:00:00 6.7 2 Nordeste 6 Nordeste 0 906.4 -- 89
2020-11-13 07:00:00 6.8 5 Este 7 Este 0 906.1 -- 85
2020-11-13 06:00:00 7.4 5 Nordeste 8 Nordeste 0 906.2 -- 82
2020-11-13 05:00:00 7.5 4 Este 7 Este 0 906 -- 79
2020-11-13 04:00:00 8.1 3 Este 9 Este 0 906 -- 73
2020-11-13 03:00:00 8.4 5 Este 8 Este 0 906.2 -- 71
2020-11-13 02:00:00 9.1 2 Este 7 Este 0 906.6 -- 69
2020-11-13 01:00:00 9.3 5 Nordeste 8 Nordeste 0 906.9 -- 72
2020-11-13 00:00:00 9.3 4 Nordeste 9 Este 0 907 -- 71
2020-11-12 23:00:00 9.8 4 Este 7 Este 0 907.3 -- 64
2020-11-12 22:00:00 10.1 0 Calma 10 Norte 0 907.2 -- 56
2020-11-12 21:00:00 10.6 3 Nordeste 17 Este 0 907 -- 59
2020-11-12 20:00:00 10.3 5 Nordeste 10 Este 0 907 -- 53
2020-11-12 19:00:00 10.3 4 Nordeste 17 Este 0 906.8 -- 51
2020-11-12 18:00:00 10.9 4 Este 15 Este 0 906.5 -- 76
2020-11-12 17:00:00 11.5 5 Sudeste 18 Este 0 906.4 -- 76
2020-11-12 16:00:00 12.2 6 Sudeste 9 Sudeste 0 906.6 -- 74
2020-11-12 15:00:00 12.4 4 Sur 14 Sudeste 0 906.8 -- 75
2020-11-12 14:00:00 12.1 5 Sudoeste 21 Sudoeste 0 907.7 -- 78
2020-11-12 13:00:00 11.2 9 Norte 18 Norte 0 907.6 -- 82
2020-11-12 12:00:00 11 0 Calma 10 Nordeste 0 908.6 -- 76
2020-11-12 11:00:00 9.8 3 Noroeste 7 Noroeste 0 909 -- 82
2020-11-12 10:00:00 8.7 2 Noroeste 5 Noroeste 0 909 -- 90
2020-11-12 09:00:00 7.3 4 Noroeste 7 Noroeste 0 908.9 -- 90
2020-11-12 08:00:00 7.8 4 Sudoeste 8 Norte 0 908.5 -- 86
2020-11-12 07:00:00 7.8 4 Nordeste 5 Nordeste 0 908.3 -- 87
2020-11-12 06:00:00 7.7 3 Nordeste 4 Este 0 908.4 -- 88
2020-11-12 05:00:00 7.6 0 Calma 5 Sudeste 0 908.4 -- 89
2020-11-12 04:00:00 8 3 Noroeste 7 Norte 0 908.7 -- 86
2020-11-12 03:00:00 8 6 Noroeste 8 Noroeste 0 909.1 -- 85
2020-11-12 02:00:00 8 4 Noroeste 6 Noroeste 0 909.5 -- 86
2020-11-12 01:00:00 7.8 3 Noroeste 8 Noroeste 0 909.7 -- 85
2020-11-12 00:00:00 8.2 3 Noroeste 5 Noroeste 0 909.8 -- 84
2020-11-11 23:00:00 8.2 0 Calma 9 Noroeste 0 909.8 -- 83
2020-11-11 22:00:00 8.5 4 Este 11 Este 0 909.3 -- 82
2020-11-11 21:00:00 8.6 4 Noroeste 10 Nordeste 0 909.3 -- 81
2020-11-11 20:00:00 9.7 0 Calma 15 Sudeste 0 909.3 -- 75
2020-11-11 19:00:00 10.2 4 Sudeste 21 Sur 0 909 -- 74
2020-11-11 18:00:00 10.6 5 Sur 21 Sudeste 0 908.9 -- 70
2020-11-11 17:00:00 11.6 8 Sur 18 Sur 0 908.7 -- 64
2020-11-11 16:00:00 13.2 9 Sur 19 Sudoeste 0 908.7 -- 60
2020-11-11 15:00:00 13.2 10 Sur 19 Sur 0 908.8 -- 58
2020-11-11 14:00:00 12.7 7 Sur 21 Sudoeste 0 909.2 -- 64
2020-11-11 13:00:00 12.4 6 Sur 28 Sur 0 909.7 -- 65
2020-11-11 12:00:00 11.9 5 Sur 12 Sur 0 910.5 -- 70
2020-11-11 11:00:00 11.3 4 Sur 7 Sur 0 910.8 -- 75
2020-11-11 10:00:00 10.3 0 Calma 4 Nordeste 0 910.8 -- 78
2020-11-11 09:00:00 7.7 3 Este 18 Este 0 911 -- 86
2020-11-11 08:00:00 6.9 5 Sudeste 8 Sudeste 0 910.6 -- 87
2020-11-11 07:00:00 7 0 Calma 9 Norte 0 910.7 -- 87
2020-11-11 06:00:00 7 7 Noroeste 8 Noroeste 0 910.8 -- 86
2020-11-11 05:00:00 7.3 5 Noroeste 7 Noroeste 0 910.7 -- 84
2020-11-11 04:00:00 7.9 0 Calma 5 Norte 0 911.1 -- 85
2020-11-11 03:00:00 8.3 0 Calma 6 Norte 0 911.7 -- 85
2020-11-11 02:00:00 8 4 Norte 9 Norte 0 911.9 -- 84
2020-11-11 01:00:00 8.4 6 Norte 10 Noroeste 0 912.3 -- 84
2020-11-11 00:00:00 8.2 7 Noroeste 11 Noroeste 0 912.1 -- 82
2020-11-10 23:00:00 8.5 6 Noroeste 10 Noroeste 0 912.3 -- 85
2020-11-10 22:00:00 8.4 7 Noroeste 11 Noroeste 0 912.2 -- 87
2020-11-10 21:00:00 9 6 Noroeste 8 Noroeste 0 911.8 -- 83
2020-11-10 20:00:00 9.8 3 Sudoeste 21 Sur 0 911.8 -- 78
2020-11-10 19:00:00 10.1 4 Sur 6 Sur 0 911.7 -- 70
2020-11-10 18:00:00 11.1 4 Sur 12 Sudeste 0 911.9 -- 64
2020-11-10 17:00:00 12.8 7 Sur 13 Sur 0 911.5 -- 59
2020-11-10 16:00:00 13.4 7 Sudeste 17 Sudoeste 0 911.3 -- 58
2020-11-10 15:00:00 13.7 7 Sur 13 Sudoeste 0 911.3 -- 59
2020-11-10 14:00:00 13.3 5 Sur 26 Sudeste 0 911.9 -- 60
2020-11-10 13:00:00 12.9 5 Sur 28 Sur 0.1 912.3 -- 64
2020-11-10 12:00:00 12 7 Sudeste 25 Sudeste 0 912.7 -- 70
2020-11-10 11:00:00 11.2 7 Sudeste 15 Sudeste 0 912.6 -- 72
2020-11-10 10:00:00 10.5 6 Sudeste 11 Este 0 912.3 -- 78
2020-11-10 09:00:00 8.1 0 Calma 6 Norte 0 911.9 -- 88
2020-11-10 08:00:00 6.4 5 Norte 8 Noroeste 0 911.3 -- 90
2020-11-10 07:00:00 6.9 2 Norte 8 Este 0 910.8 -- 93
2020-11-10 06:00:00 7.3 7 Norte 10 Norte 0.1 910.7 -- 91
2020-11-10 05:00:00 7.2 5 Noroeste 7 Norte 0 910.3 -- 99
2020-11-10 04:00:00 7.3 0 Calma 8 Noroeste 0 910.4 -- 98
2020-11-10 03:00:00 6.7 6 Noroeste 9 Noroeste 0 910.5 -- 97
2020-11-10 02:00:00 7.4 2 Oeste 5 Oeste 0 910.4 -- 97
2020-11-10 01:00:00 7.2 3 Norte 9 Noroeste 0 910.4 -- 97
2020-11-10 00:00:00 7.6 4 Norte 7 Noroeste 0 910.4 -- 99
2020-11-09 23:00:00 8 3 Este 8 Norte 0 910.3 -- 99
2020-11-09 22:00:00 8.2 4 Norte 6 Norte 0 910.2 -- 99
2020-11-09 21:00:00 8.5 4 Norte 5 Noroeste 0 909.9 -- 99
2020-11-09 20:00:00 9 0 Calma 5 Noroeste 0 909.7 -- 94
2020-11-09 19:00:00 9.5 0 Calma 5 Noroeste 0 909.3 -- 91
2020-11-09 18:00:00 10.2 0 Calma 9 Sudoeste 0 908.8 -- 85
2020-11-09 17:00:00 10.9 2 Sur 12 Sur 0.1 908.3 -- 83
2020-11-09 16:00:00 11.8 6 Sudeste 15 Sur 0 908.1 -- 76
2020-11-09 15:00:00 11.6 6 Sur 17 Sur 0 908 -- 76
2020-11-09 14:00:00 10.9 7 Sudeste 17 Sur 0 908.3 -- 90
2020-11-09 13:00:00 10.1 8 Sudeste 12 Sudeste 0 908.5 -- 99
2020-11-09 12:00:00 9.3 5 Sur 8 Sur 0 908.9 -- 99
2020-11-09 11:00:00 8.5 0 Calma 10 Sur 0 908.9 -- 99
2020-11-09 10:00:00 8.3 3 Este 9 Sudeste 0 908.6 -- 99
2020-11-09 09:00:00 8.1 0 Calma 7 Oeste 0 908.1 -- 99
2020-11-09 08:00:00 7.8 0 Calma 6 Sudeste 0 907.3 -- 99
2020-11-09 07:00:00 8 0 Calma 10 Este 0.1 906.7 -- 99
2020-11-09 06:00:00 8.3 11 Este 14 Este 2.7 906.3 -- 99
2020-11-09 05:00:00 8.6 3 Sur 7 Sur 0.9 906.8 -- 98
2020-11-09 04:00:00 8.9 2 Norte 6 Noroeste 0.1 906.5 -- 93
2020-11-09 03:00:00 9.3 4 Sudeste 6 Sudeste 0 906.6 -- 90
2020-11-09 02:00:00 9.4 0 Calma 3 Este 0.1 906.9 -- 90
2020-11-09 01:00:00 9.5 3 Sudeste 5 Este 0 907.2 -- 85
2020-11-09 00:00:00 9.5 2 Este 3 Este 0 907.3 -- 85
2020-11-08 23:00:00 9.4 0 Calma 3 Noroeste 0 907.6 -- 85
2020-11-08 22:00:00 9.3 0 Calma 4 Noroeste 0 907.6 -- 85
2020-11-08 21:00:00 9.3 0 Calma 7 Noroeste 0 907.5 -- 85
2020-11-08 20:00:00 9.4 3 Norte 6 Noroeste 0 907.5 -- 89
2020-11-08 19:00:00 9.6 3 Sudoeste 5 Sudoeste 0 907.7 -- 88
2020-11-08 18:00:00 9.5 0 Calma 5 Norte 0 907.3 -- 86
2020-11-08 17:00:00 10.2 4 Sudoeste 7 Sur 0 907.4 -- 82
2020-11-08 16:00:00 10.2 6 Sur 14 Sur 0 907.5 -- 83
2020-11-08 15:00:00 10.1 7 Sudoeste 16 Sur 0 907.5 -- 83
2020-11-08 14:00:00 10.4 7 Sur 15 Sur 0 907.9 -- 87
2020-11-08 13:00:00 10.2 9 Sur 16 Sudoeste 0 908.4 -- 87
2020-11-08 12:00:00 10.3 5 Sur 12 Sudeste 0 909.1 -- 99
2020-11-08 11:00:00 8.1 5 Sudeste 9 Sur 0 909 -- 99
2020-11-08 10:00:00 7.4 4 Sur 8 Sur 0 909 -- 99
2020-11-08 09:00:00 6.8 4 Este 8 Sudeste 0 908.5 -- 99
2020-11-08 08:00:00 7 5 Sudeste 8 Sudeste 0 908.3 -- 99
2020-11-08 07:00:00 7.4 4 Sur 6 Sur 0 908 -- 99
2020-11-08 06:00:00 7.6 0 Calma 4 Este 0 908.1 -- 99
2020-11-08 05:00:00 7.7 3 Nordeste 6 Este 0 908.1 -- 99
2020-11-08 04:00:00 7.7 5 Sudeste 7 Sudeste 0 908.4 -- 99
2020-11-08 03:00:00 7.7 0 Calma 5 Sudeste 0 908.7 -- 99
2020-11-08 02:00:00 7.6 3 Sur 6 Sudoeste 0 908.8 -- 99
2020-11-08 01:00:00 7.6 4 Sur 12 Sudoeste 0 908.7 -- 99
2020-11-08 00:00:00 7.1 7 Sudoeste 16 Sudoeste 0 908.7 -- 99
2020-11-07 23:00:00 7.5 10 Sudoeste 19 Sudoeste 0 908.5 -- 94
2020-11-07 22:00:00 8.3 13 Sudoeste 25 Sudoeste 0 908.1 -- 85
2020-11-07 21:00:00 7.9 13 Sudoeste 19 Sudoeste 0 907.7 -- 92
2020-11-07 20:00:00 8.2 8 Oeste 19 Oeste 0 907.4 -- 91
2020-11-07 19:00:00 9 9 Sudoeste 25 Sudoeste 0 907.2 -- 89
2020-11-07 18:00:00 10.1 12 Sudoeste 32 Sudoeste 0 906.4 -- 83
2020-11-07 17:00:00 11.1 22 Sudoeste 34 Sudoeste 0 905.5 -- 79
2020-11-07 16:00:00 11 19 Sudoeste 45 Sudoeste 0 905.2 -- 83
2020-11-07 15:00:00 10.7 24 Sudoeste 37 Sudoeste 0 904.9 -- 92
2020-11-07 14:00:00 9.1 22 Sudoeste 31 Sudoeste 0.2 904.7 -- 99
2020-11-07 13:00:00 8.6 18 Sudoeste 33 Sudoeste 0.7 904.3 -- 99
2020-11-07 12:00:00 8.7 19 Sudoeste 35 Sudoeste 0 904.2 -- 99
2020-11-07 11:00:00 8.4 21 Sudoeste 32 Sudoeste 0 903.3 -- 99
2020-11-07 10:00:00 8.8 14 Sur 24 Sur 0 902.6 -- 99
2020-11-07 09:00:00 8.7 11 Sur 23 Sur 1.3 901.6 -- 99
2020-11-07 08:00:00 8.7 10 Sur 25 Sudeste 0 901.1 -- 99
2020-11-07 07:00:00 8.7 13 Sudeste 30 Sur 0 900.3 -- 99
2020-11-07 06:00:00 8.6 14 Sudeste 26 Sudeste 0.1 900.5 -- 99
2020-11-07 05:00:00 8.6 8 Sudeste 27 Oeste 0.1 900 -- 99
2020-11-07 04:00:00 8.6 5 Nordeste 27 Sur 1.8 900 -- 99
2020-11-07 03:00:00 9 22 Sur 75 Sudoeste 6.6 901.7 -- 99
2020-11-07 02:00:00 9.3 44 Sudoeste 80 Sur 2.7 901.7 -- 99
2020-11-07 01:00:00 11 40 Sudoeste 73 Sudoeste 2.4 902.3 -- 99
2020-11-07 00:00:00 11.4 15 Sudeste 45 Sudeste 0.8 902.4 -- 99
2020-11-06 23:00:00 11.7 28 Sudeste 54 Sudeste 0 902.3 -- 98
2020-11-06 22:00:00 12 22 Sudeste 51 Sur 0.4 902.5 -- 97
2020-11-06 21:00:00 12.2 14 Sudeste 36 Sudeste 0.5 902.6 -- 91
2020-11-06 20:00:00 13 13 Sur 30 Sudeste 0.2 902.5 -- 82
2020-11-06 19:00:00 13.4 21 Este 42 Este 0 901.5 -- 79
2020-11-06 18:00:00 13.4 11 Este 28 Sudeste 0.1 901.5 -- 83
2020-11-06 17:00:00 14.2 9 Sudeste 33 Sudeste 0 902.2 -- 75
2020-11-06 16:00:00 14.8 19 Sudeste 38 Sudeste 0 901.9 -- 73
2020-11-06 15:00:00 14.8 22 Sudeste 39 Sur 0 902.2 -- 73
2020-11-06 14:00:00 15 26 Sudeste 45 Sudeste 0 902.5 -- 70
2020-11-06 13:00:00 15.1 13 Sudeste 57 Sudeste 0 903.5 -- 71
2020-11-06 12:00:00 13.8 10 Este 44 Sudeste 0 904.1 -- 75
2020-11-06 11:00:00 13.5 13 Este 26 Nordeste 0 904.3 -0.5 80
2020-11-06 10:00:00 12.3 16 Nordeste 29 Nordeste 0 904.9 -- 86
2020-11-06 09:00:00 10.9 20 Nordeste 29 Nordeste 0 904.6 -- 94
2020-11-06 08:00:00 9.7 10 Nordeste 24 Nordeste 0 904.8 -- 94
2020-11-06 07:00:00 10 10 Nordeste 24 Nordeste 0 905.3 -- 93
2020-11-06 06:00:00 10 9 Nordeste 22 Nordeste 0 905.5 -- 93
2020-11-06 05:00:00 10.4 8 Nordeste 22 Nordeste 0 905.7 -- 93
2020-11-06 04:00:00 10.1 11 Nordeste 17 Nordeste 0 905.4 -- 97
2020-11-06 03:00:00 9.4 12 Nordeste 19 Nordeste 0 905.4 -- 99
2020-11-06 02:00:00 9.6 6 Nordeste 20 Este 0 905.4 -- 99
2020-11-06 01:00:00 9.9 10 Este 18 Nordeste 0 905.7 -- 99
2020-11-06 00:00:00 9.7 12 Nordeste 19 Nordeste 0 905.6 -- 99
2020-11-05 23:00:00 9.5 10 Nordeste 22 Nordeste 0 905.5 -- 99
2020-11-05 22:00:00 9.2 14 Nordeste 22 Nordeste 0 905.5 -- 99
2020-11-05 21:00:00 9.3 15 Este 39 Este 0 905.4 -- 99
2020-11-05 20:00:00 9.3 24 Este 38 Este 0.2 904.4 -- 99
2020-11-05 19:00:00 9.7 22 Este 50 Este 0.4 904.9 -- 99
2020-11-05 18:00:00 9.5 26 Este 47 Este 3.5 904.3 -- 99
2020-11-05 17:00:00 9.5 22 Este 37 Este 3.3 905 -- 99
2020-11-05 16:00:00 9.7 19 Este 37 Sudeste 0.9 905 -- 99
2020-11-05 15:00:00 10.3 26 Sudeste 40 Sudeste 0.2 905.2 -- 95
2020-11-05 14:00:00 10.1 15 Este 29 Este 0 905.5 -- 94
2020-11-05 13:00:00 9.7 19 Este 32 Nordeste 0 905.7 -- 94
2020-11-05 12:00:00 8.9 25 Este 42 Este 0.1 906 -- 95
2020-11-05 11:00:00 8.3 28 Este 43 Este 0.2 906.4 -- 96
2020-11-05 10:00:00 7.8 28 Este 41 Este 1.9 906.2 -- 96
2020-11-05 09:00:00 7.3 30 Nordeste 47 Nordeste 0.4 906.4 -- 94
2020-11-05 08:00:00 7.4 31 Nordeste 46 Este 0 905.5 -- 89
2020-11-05 07:00:00 7.3 27 Nordeste 62 Este 0 904.8 -- 87
2020-11-05 06:00:00 7.5 0 Calma -- -- 0 904.9 -- 87
2020-11-05 05:00:00 7.2 0 Calma 20 Norte 0 905 -- 90
2020-11-05 04:00:00 6.9 0 Calma -- -- 0 905 -- 91
2020-11-05 03:00:00 7 0 Calma -- -- 0 904.9 -- 92
2020-11-05 02:00:00 6.2 0 Calma -- -- 0 905 -- 99
2020-11-05 01:00:00 6.1 0 Calma -- -- 0.3 905.3 -- 99
2020-11-05 00:00:00 6 0 Calma -- -- 0.3 905.3 -- 99
2020-11-04 23:00:00 5.8 0 Calma -- -- 0.7 905.1 -- 99
2020-11-04 22:00:00 5.7 0 Calma -- -- 0.3 904.9 -- 99
2020-11-04 21:00:00 6 0 Calma 2 Norte 0 904.3 -- 96
2020-11-04 20:00:00 6 0 Calma 25 Nordeste 0 904 -- 97
2020-11-04 19:00:00 6.1 0 Calma -- -- 0.1 903.5 -- 99
2020-11-04 18:00:00 6.1 0 Calma -- -- 0 903.1 -- 99
2020-11-04 17:00:00 6.3 0 Calma -- -- 0.1 903.2 -- 99
2020-11-04 16:00:00 7.1 0 Calma -- -- 0.4 903 -- 91
2020-11-04 15:00:00 8 0 Calma -- -- 0 903.3 -- 71
2020-11-04 14:00:00 8.2 0 Calma -- -- 0 903.9 -- 69
2020-11-04 13:00:00 7.2 0 Calma -- -- 0 904.7 -- 71
2020-11-04 12:00:00 6.8 0 Calma 0 Calma 0 905.4 -- 70
2020-11-04 11:00:00 6.7 0 Calma 36 Este 0 905.4 -0.1 68
2020-11-04 10:00:00 6.7 0 Calma 6 Este 0 905.4 -- 68
2020-11-04 09:00:00 6.6 0 Calma 6 Nordeste 0 905.2 -- 68
2020-11-04 08:00:00 6.3 4 Nordeste 44 Nordeste 0 905.5 -- 69
2020-11-04 07:00:00 6.5 19 Nordeste 54 Este 0 905.6 -- 70
2020-11-04 06:00:00 6.5 11 Nordeste 36 Este 0 906.1 -- 70
2020-11-04 05:00:00 6.8 0 Calma 30 Este 0 906.7 -- 69
2020-11-04 04:00:00 6.9 0 Calma 34 Nordeste 0 907.5 -- 72
2020-11-04 03:00:00 7.3 3 Este 47 Este 0 908 -- 71
2020-11-04 02:00:00 7.2 0 Calma 6 Nordeste 0 908.4 -- 85
2020-11-04 01:00:00 7.6 0 Calma 31 Este 0 909.5 -- 78
2020-11-04 00:00:00 7.7 0 Calma 22 Nordeste 0 910.1 -- 79
2020-11-03 23:00:00 8.2 0 Calma 0 Calma 0 910.6 -- 76
2020-11-03 22:00:00 8.5 0 Calma 64 Este 0 910.8 -- 81
2020-11-03 21:00:00 8.4 37 Este 51 Este 0 911.2 -- 84
2020-11-03 20:00:00 9.1 27 Este 78 Este 0.1 911.2 -- 83
2020-11-03 19:00:00 9.1 32 Este 84 Este 0 911.2 -- 89
2020-11-03 18:00:00 9.4 33 Este 66 Este 0 910.7 -- 94
2020-11-03 17:00:00 9.4 30 Este 53 Este 0.1 910.3 -- 99
2020-11-03 16:00:00 11.3 8 Este 41 Este 0 910.2 -- 99
2020-11-03 15:00:00 11.9 13 Este 32 Este 1 910.2 -- 95
2020-11-03 14:00:00 12.6 0 Calma 0 Calma 0.3 910.3 -- 93
2020-11-03 13:00:00 12.8 0 Calma 7 Norte 0 910.7 -- 99
2020-11-03 12:00:00 12.4 2 Norte 55 Norte 0.1 910.9 -- 99
2020-11-03 11:00:00 11.7 13 Noroeste 26 Oeste 0.1 911 -- 99
2020-11-03 10:00:00 11.5 5 Oeste 35 Sudeste 2.1 910.8 -- 99
2020-11-03 09:00:00 11.9 15 Sudeste 32 Sudeste 1.7 910.3 -- 96
2020-11-03 08:00:00 11.5 16 Noroeste 51 Noroeste 0 910 -- 95
2020-11-03 07:00:00 12 0 Calma 33 Noroeste 0 909.4 -- 86
2020-11-03 06:00:00 12.2 8 Noroeste 33 Oeste 0 909.2 -- 83
2020-11-03 05:00:00 12.2 10 Sur 28 Noroeste 0 908.9 -- 87
2020-11-03 04:00:00 12.5 9 Este 23 Este 0 909.1 -- 87
2020-11-03 03:00:00 12.4 0 Calma 15 Noroeste 0 909.2 -- 85
2020-11-03 02:00:00 12.6 0 Calma 12 Noroeste 0 909.1 -- 83
2020-11-03 01:00:00 12.6 4 Nordeste 12 Este 0 909.2 -- 87
2020-11-03 00:00:00 13.2 0 Calma 6 Nordeste 0 909.4 -- 83
2020-11-02 23:00:00 13.6 0 Calma 22 Norte 0 909.3 -- 83
2020-11-02 22:00:00 14 2 Norte 28 Norte 0 909.6 -- 82
2020-11-02 21:00:00 13.8 0 Calma 29 Noroeste 0 909.6 -- 83
2020-11-02 20:00:00 13.8 0 Calma 6 Sudoeste 0 909.5 -- 80
2020-11-02 19:00:00 14.4 0 Calma 0 Calma 0 909 -- 75
2020-11-02 18:00:00 15.2 0 Calma 0 Calma 0 908.6 -- 70
2020-11-02 17:00:00 16.5 0 Calma 0 Calma 0 908.3 -- 67
2020-11-02 16:00:00 16.6 0 Calma -- -- 0 908.5 -- 65
2020-11-02 15:00:00 16.5 0 Calma 0 Calma 0 908.5 -- 64
2020-11-02 14:00:00 16.6 0 Calma -- -- 0 909.2 -- 66
2020-11-02 13:00:00 15.9 0 Calma -- -- 0 909.8 -- 68
2020-11-02 12:00:00 14.6 0 Calma -- -- 0 910.3 -- 72
2020-11-02 11:00:00 15.2 0 Calma -- -- 0 910.3 -- 75
2020-11-02 10:00:00 13.5 0 Calma 10 Sudeste 0 910.2 -- 80
2020-11-02 09:00:00 12.3 2 Este 15 Este 0 909.7 -- 89
2020-11-02 08:00:00 10.3 10 Este 34 Norte 0 909.2 -- 91
2020-11-02 07:00:00 10.4 27 Noroeste 38 Noroeste 0 909.2 -- 92
2020-11-02 06:00:00 10 5 Noroeste 19 Noroeste 0 909.4 -- 88
2020-11-02 05:00:00 10.8 0 Calma 16 Noroeste 0 909.3 -- 87
2020-11-02 04:00:00 10.9 5 Este 39 Noroeste 0 909.1 -- 83
2020-11-02 03:00:00 11.4 23 Norte 38 Norte 0 909.4 -- 81
2020-11-02 02:00:00 11.7 5 Este 14 Este 0 909.7 -- 79
2020-11-02 01:00:00 11.6 6 Este 15 Este 0 910.1 -- 77
2020-11-02 00:00:00 12.4 2 Este 26 Norte 0 910.2 -- 72
2020-11-01 23:00:00 12.9 4 Noroeste 22 Noroeste 0 910.4 -- 70
2020-11-01 22:00:00 12.7 5 Noroeste 24 Noroeste 0 910.2 -- 72
2020-11-01 21:00:00 13.3 0 Calma 0 Calma 0 910.2 -- 67
2020-11-01 20:00:00 13.8 0 Calma 0 Calma 0 910.3 -- 66
2020-11-01 19:00:00 14.2 0 Calma 4 Sur 0 910.3 -- 62
2020-11-01 18:00:00 15.4 0 Calma -- -- 0 910.2 -- 58
2020-11-01 17:00:00 17.3 0 Calma -- -- 0 910.2 -- 55
2020-11-01 16:00:00 17.2 0 Calma -- -- 0 910.4 -- 54
2020-11-01 15:00:00 17.9 0 Calma -- -- 0 910.6 -- 56
2020-11-01 14:00:00 17.3 0 Calma -- -- 0 911 -- 56
2020-11-01 13:00:00 16.6 0 Calma -- -- 0 911.6 -- 58
2020-11-01 12:00:00 15.9 0 Calma -- -- 0 911.9 -- 62
2020-11-01 11:00:00 15.5 0 Calma -- -- 0 912.1 -- 64
2020-11-01 10:00:00 14 0 Calma -- -- 0 912.1 -- 68
2020-11-01 09:00:00 12.5 0 Calma 24 Noroeste 0 911.6 -- 71
2020-11-01 08:00:00 10.5 14 Noroeste 28 Noroeste 0 911.1 -- 75
2020-11-01 07:00:00 10.1 0 Calma 3 Sur 0 910.9 -- 75
2020-11-01 06:00:00 10.7 0 Calma 0 Calma 0 910.6 -- 74
2020-11-01 05:00:00 11.1 0 Calma 2 Norte 0 910.8 -- 73
2020-11-01 04:00:00 10.5 0 Calma -- -- 0 910.9 -- 76
2020-11-01 03:00:00 11.4 0 Calma 0 Calma 0 911.4 -- 71
2020-11-01 02:00:00 12.3 0 Calma 3 Este 0 911.7 -- 70
2020-11-01 01:00:00 12.5 0 Calma 0 Calma 0 911.7 -- 69
2020-11-01 00:00:00 12.7 0 Calma 0 Calma 0 911.9 -- 67
2020-10-31 23:00:00 13.3 0 Calma 2 Norte 0 911.7 -- 69
2020-10-31 22:00:00 13.2 0 Calma 6 Noroeste 0 911.6 -- 69
2020-10-31 21:00:00 13 0 Calma 3 Noroeste 0 911.5 -- 68
2020-10-31 20:00:00 13.7 0 Calma 8 Sudoeste 0 911.5 -- 62
2020-10-31 19:00:00 14.9 0 Calma 0 Calma 0 911.3 -- 60
2020-10-31 18:00:00 16.2 0 Calma 0 Calma 0 911 -- 53
2020-10-31 17:00:00 17.3 0 Calma -- -- 0 910.8 -- 49
2020-10-31 16:00:00 18.2 0 Calma -- -- 0 910.7 -- 47
2020-10-31 15:00:00 18.5 0 Calma -- -- 0 910.9 -- 51
2020-10-31 14:00:00 17.4 0 Calma -- -- 0 911.2 -- 53
2020-10-31 13:00:00 16.5 0 Calma -- -- 0 911.8 -- 55
2020-10-31 12:00:00 17 0 Calma -- -- 0 912.5 -- 58
2020-10-31 11:00:00 16 0 Calma -- -- 0 912.6 -- 60
2020-10-31 10:00:00 13.9 0 Calma -- -- 0 912.5 -- 69
2020-10-31 09:00:00 11.7 0 Calma 0 Calma 0 912 -- 75
2020-10-31 08:00:00 9.6 0 Calma 9 Sudeste 0 911.9 -- 77
2020-10-31 07:00:00 10.2 0 Calma 2 Sudeste 0 911.6 -- 76
2020-10-31 06:00:00 10.3 0 Calma 2 Este 0 911.5 -- 74
2020-10-31 05:00:00 10 0 Calma 21 Noroeste 0 911.3 -- 72
2020-10-31 04:00:00 10.4 2 Norte 21 Noroeste 0 911.2 -- 73
2020-10-31 03:00:00 10.5 0 Calma 0 Calma 0 911.7 -- 75
2020-10-31 02:00:00 11.1 0 Calma 3 Norte 0 911.8 -- 73
2020-10-31 01:00:00 11.3 0 Calma 18 Norte 0 911.8 -- 73
2020-10-31 00:00:00 11.4 6 Noroeste 31 Norte 0 911.9 -- 76
2020-10-30 23:00:00 10.9 0 Calma 0 Calma 0 912.2 -- 75
2020-10-30 22:00:00 11.9 0 Calma 0 Calma 0 912.2 -- 73
2020-10-30 21:00:00 11.7 0 Calma 0 Calma 0 911.9 -- 70
2020-10-30 20:00:00 12.7 0 Calma 9 Sudeste 0 911.7 -- 62
2020-10-30 19:00:00 13.4 0 Calma -- -- 0 911.7 -- 59
2020-10-30 18:00:00 14.6 0 Calma -- -- 0 911.4 -- 55
2020-10-30 17:00:00 16.4 0 Calma 0 Calma 0 911.4 -- 53
2020-10-30 16:00:00 16.7 0 Calma -- -- 0 911.4 -- 52
2020-10-30 15:00:00 16.1 0 Calma -- -- 0 911.8 -- 53
2020-10-30 14:00:00 15.6 0 Calma -- -- 0 912.2 -- 59
2020-10-30 13:00:00 14.8 0 Calma -- -- 0 912.6 -- 62
2020-10-30 12:00:00 13.9 0 Calma -- -- 0 913 -- 68
2020-10-30 11:00:00 12.7 0 Calma -- -- 0 913.1 -- 78
2020-10-30 10:00:00 10.9 0 Calma -- -- 0 913.1 -- 86
2020-10-30 09:00:00 8.7 0 Calma 12 Noroeste 0 912.8 -- 98
2020-10-30 08:00:00 6.8 9 Oeste 30 Noroeste 0 912.3 -- 99
2020-10-30 07:00:00 6.9 7 Oeste 16 Noroeste 0 912.3 -- 98
2020-10-30 06:00:00 7.7 3 Nordeste 8 Nordeste 0 912.2 -- 98
2020-10-30 05:00:00 7.4 0 Calma 21 Noroeste 0 912.2 -- 98
2020-10-30 04:00:00 7.4 13 Noroeste 19 Noroeste 0 912.1 -- 96
2020-10-30 03:00:00 7.7 5 Nordeste 9 Este 0 912.2 -- 94
2020-10-30 02:00:00 8.3 0 Calma 6 Nordeste 0 912.2 -- 94
2020-10-30 01:00:00 8.1 2 Norte 23 Noroeste 0 912.6 -- 94
2020-10-30 00:00:00 8 12 Norte 32 Norte 0 912.7 -- 91
2020-10-29 23:00:00 8.2 19 Norte 36 Norte 0 912.9 -- 91
2020-10-29 22:00:00 8.2 4 Noroeste 13 Norte 0 912.9 -- 85
2020-10-29 21:00:00 9 0 Calma 3 Este 0 912.6 -- 83
2020-10-29 20:00:00 9.2 0 Calma 5 Este 0 912.5 -- 80
2020-10-29 19:00:00 9.5 0 Calma 0 Calma 0 912.4 -- 79
2020-10-29 18:00:00 10.8 0 Calma 13 Sur 0 912.1 -- 70
2020-10-29 17:00:00 12.7 0 Calma -- -- 0 912.1 -- 64
2020-10-29 16:00:00 13.4 0 Calma -- -- 0 911.8 -- 62
2020-10-29 15:00:00 13.1 0 Calma 0 Calma 0 912.1 -- 64
2020-10-29 14:00:00 12.2 0 Calma 0 Calma 0 912.5 -- 67
2020-10-29 13:00:00 10.7 0 Calma -- -- 0 913 -- 78
2020-10-29 12:00:00 9.4 0 Calma 0 Calma 0 913.3 -- 81
2020-10-29 11:00:00 9 0 Calma -- -- 0 913.3 -- 89
2020-10-29 10:00:00 8.4 0 Calma 5 Nordeste 0 913.3 -- 96
2020-10-29 09:00:00 7.8 0 Calma 19 Noroeste 0 913.1 -- 99
2020-10-29 08:00:00 7.5 0 Calma 14 Noroeste 0 912.3 -- 99
2020-10-29 07:00:00 7.5 0 Calma 22 Noroeste 0 912 -- 99
2020-10-29 06:00:00 8 0 Calma 0 Calma 0 911.4 -- 99
2020-10-29 05:00:00 8.2 0 Calma 0 Calma 0 910.9 -- 99
2020-10-29 04:00:00 8.3 0 Calma 3 Nordeste 0 910.7 -- 99
2020-10-29 03:00:00 8.5 0 Calma 0 Calma 0 911.3 -- 99
2020-10-29 02:00:00 8.7 0 Calma -- -- 0 911.3 -- 99
2020-10-29 01:00:00 8.8 0 Calma -- -- 0 911 -- 99
2020-10-29 00:00:00 8.9 0 Calma -- -- 0 911 -- 99
2020-10-28 23:00:00 9 0 Calma -- -- 0 910.7 -- 99
2020-10-28 22:00:00 8.9 0 Calma -- -- 0 910.5 -- 99
2020-10-28 21:00:00 9.1 0 Calma -- -- 0 910.3 -- 99
2020-10-28 20:00:00 9 0 Calma -- -- 0 909.9 -- 99
2020-10-28 19:00:00 9.1 0 Calma -- -- 0 909.7 -- 99
2020-10-28 18:00:00 9.3 0 Calma -- -- 0 909.1 -- 99
2020-10-28 17:00:00 9.3 0 Calma -- -- 0 908.9 -- 99
2020-10-28 16:00:00 9.7 0 Calma -- -- 0 908.7 -- 99
2020-10-28 15:00:00 10.7 0 Calma -- -- 0 908.5 -- 94
2020-10-28 14:00:00 9.6 0 Calma -- -- 0 908.8 -- 99
2020-10-28 13:00:00 8.7 0 Calma -- -- 0 909 -- 99
2020-10-28 12:00:00 8 0 Calma -- -- 0 909.2 -- 99
2020-10-28 11:00:00 8.2 0 Calma -- -- 0 908.7 -- 99
2020-10-28 10:00:00 7.4 0 Calma -- -- 0 908.1 -- 99
2020-10-28 09:00:00 6.8 0 Calma -- -- 0 907.8 -- 99
2020-10-28 08:00:00 6.6 0 Calma 2 Nordeste 0 906.7 -- 99
2020-10-28 07:00:00 6.5 0 Calma -- -- 0 906.3 -- 99
2020-10-28 06:00:00 6.4 0 Calma -- -- 0 906 -- 99
2020-10-28 05:00:00 6.5 0 Calma -- -- 0 905.6 -- 91
2020-10-28 04:00:00 6 0 Calma 17 Noroeste 0 905.5 -- 93
2020-10-28 03:00:00 6 0 Calma 2 Noroeste 0 905.7 -- 91
2020-10-28 02:00:00 6.7 0 Calma -- -- 0 905.9 -- 85
2020-10-28 01:00:00 7.2 0 Calma -- -- 0 906.1 -- 83
2020-10-28 00:00:00 7.5 0 Calma -- -- 0 906.2 -- 83
2020-10-27 23:00:00 7.4 0 Calma -- -- 0 906.3 -- 79
2020-10-27 22:00:00 8.7 0 Calma -- -- 0 906.1 -- 72
2020-10-27 21:00:00 8.3 0 Calma -- -- 0 905.5 -- 72
2020-10-27 20:00:00 8.7 0 Calma -- -- 0 905.4 -- 69
2020-10-27 19:00:00 9 0 Calma -- -- 0 905 -- 67
2020-10-27 18:00:00 9.6 0 Calma -- -- 0 904.3 -- 64
2020-10-27 17:00:00 11.5 0 Calma -- -- 0 904.3 -- 56
2020-10-27 16:00:00 13.2 0 Calma -- -- 0 904.4 -- 50
2020-10-27 15:00:00 12.7 0 Calma -- -- 0 904.2 -- 49
2020-10-27 14:00:00 12.6 0 Calma -- -- 0 904.5 -- 51
2020-10-27 13:00:00 11.2 0 Calma -- -- 0 905.2 -- 51
2020-10-27 12:00:00 10.4 0 Calma -- -- 0 905.5 -- 52
2020-10-27 11:00:00 8.9 0 Calma -- -- 0 905.3 -- 61
2020-10-27 10:00:00 7.3 0 Calma -- -- 0 905 -- 66
2020-10-27 09:00:00 5.8 0 Calma -- -- 0 905.2 -- 71
2020-10-27 08:00:00 4.5 0 Calma -- -- 0 904.7 -- 76
2020-10-27 07:00:00 4.2 0 Calma -- -- 0 904.6 -- 76
2020-10-27 06:00:00 4.3 0 Calma -- -- 0 904.8 -- 75
2020-10-27 05:00:00 4.6 0 Calma -- -- 0 904.4 -- 74
2020-10-27 04:00:00 4.7 0 Calma -- -- 0 904.3 -- 74
2020-10-27 03:00:00 4.8 0 Calma -- -- 0 905.1 -- 71
2020-10-27 02:00:00 5 0 Calma -- -- 0 905.1 -- 70
2020-10-27 01:00:00 5.6 0 Calma -- -- 0 905.4 -- 66
2020-10-27 00:00:00 5.8 0 Calma -- -- 0 905.9 -- 65
2020-10-26 23:00:00 5.5 0 Calma -- -- 0 905.7 -- 63
2020-10-26 22:00:00 5.6 0 Calma -- -- 0 905.7 -- 63
2020-10-26 21:00:00 5.5 0 Calma -- -- 0 905.3 -- 63
2020-10-26 20:00:00 6.2 0 Calma -- -- 0 905.1 -- 60
2020-10-26 19:00:00 6 0 Calma -- -- 0 904.9 -- 57
2020-10-26 18:00:00 7.6 0 Calma -- -- 0 904.2 -- 45
2020-10-26 17:00:00 8.8 0 Calma -- -- 0 903.8 -- 43
2020-10-26 16:00:00 9.6 0 Calma -- -- 0 903.6 -- 42
2020-10-26 15:00:00 10.1 0 Calma -- -- 0 903.1 -- 42
2020-10-26 14:00:00 9.3 0 Calma -- -- 0 903.4 -- 47
2020-10-26 13:00:00 9.2 0 Calma -- -- 0 903.3 -- 49
2020-10-26 12:00:00 9 0 Calma -- -- 0 903.5 -- 52
2020-10-26 11:00:00 7.5 0 Calma -- -- 0 903.2 -- 53
2020-10-26 10:00:00 6.4 0 Calma -- -- 0 902.6 -- 62
2020-10-26 09:00:00 5.4 0 Calma -- -- 0 902.4 -- 64
2020-10-26 08:00:00 3.8 0 Calma -- -- 0 901.5 -- 72
2020-10-26 07:00:00 4.2 0 Calma -- -- 0 900.4 -- 70
2020-10-26 06:00:00 4.1 0 Calma -- -- 0 899.5 -- 72
2020-10-26 05:00:00 4.5 0 Calma -- -- 0 898.9 -- 70
2020-10-26 04:00:00 5.1 0 Calma -- -- 0 898.8 -- 64
2020-10-26 03:00:00 4.6 0 Calma -- -- 0 898.7 -- 66
2020-10-26 02:00:00 5.5 0 Calma -- -- 0 898.9 -- 56
2020-10-26 01:00:00 6.2 0 Calma -- -- 0 898.8 -- 54
2020-10-26 00:00:00 6.1 0 Calma -- -- 0 898.6 -- 59